createdAt,value
2022-08-22T00:01:30.281Z,2.88
2022-08-22T00:02:44.178Z,2.33
2022-08-22T00:02:45.810Z,1.70
2022-08-22T00:03:08.535Z,3.00
2022-08-22T00:03:12.286Z,2.50
2022-08-22T00:03:12.734Z,2.20
2022-08-22T00:04:13.446Z,2.75
2022-08-22T00:07:37.240Z,3.55
2022-08-22T00:10:24.934Z,2.75
2022-08-22T00:13:27.523Z,2.85
2022-08-22T00:16:51.417Z,3.45
2022-08-22T00:19:50.339Z,3.47
2022-08-22T00:25:26.394Z,3.03
2022-08-22T00:28:23.540Z,3.17
2022-08-22T00:31:22.272Z,2.92
2022-08-22T00:34:08.359Z,2.80
2022-08-22T00:37:22.843Z,3.30
2022-08-22T00:40:03.413Z,3.03
2022-08-22T00:42:53.199Z,3.40
2022-08-22T00:45:37.798Z,3.42
2022-08-22T00:48:29.889Z,3.30
2022-08-22T00:51:24.468Z,3.25
2022-08-22T00:54:17.423Z,3.40
2022-08-22T00:57:35.470Z,3.17
2022-08-22T01:00:25.189Z,3.00
2022-08-22T01:03:10.812Z,3.35
2022-08-22T01:06:02.336Z,2.72
2022-08-22T01:09:13.259Z,3.00
2022-08-22T01:11:55.568Z,3.33
2022-08-22T01:14:41.173Z,3.10
2022-08-22T01:17:30.004Z,3.00
2022-08-22T01:20:44.919Z,3.33
2022-08-22T01:24:12.721Z,3.08
2022-08-22T01:26:44.748Z,2.85
2022-08-22T01:29:31.434Z,3.22
2022-08-22T01:32:29.946Z,3.40
2022-08-22T01:35:26.721Z,3.17
2022-08-22T01:38:19.940Z,3.53
2022-08-22T01:41:23.750Z,3.47
2022-08-22T01:44:09.506Z,3.45
2022-08-22T01:47:12.430Z,3.58
2022-08-22T01:50:02.963Z,3.15
2022-08-22T01:52:54.479Z,3.55
2022-08-22T01:55:29.093Z,3.45
2022-08-22T01:58:14.074Z,3.58
2022-08-22T02:01:20.304Z,3.50
2022-08-22T02:04:10.167Z,3.00
2022-08-22T02:07:05.637Z,3.42
2022-08-22T02:09:42.685Z,3.28
2022-08-22T02:12:42.065Z,3.80
2022-08-22T02:15:25.499Z,3.38
2022-08-22T02:18:09.013Z,3.67
2022-08-22T02:20:47.817Z,3.78
2022-08-22T02:23:42.516Z,3.72
2022-08-22T02:26:45.772Z,3.50
2022-08-22T02:29:21.100Z,3.58
2022-08-22T02:32:08.979Z,3.88
2022-08-22T02:34:58.156Z,3.95
2022-08-22T02:37:39.468Z,3.85
2022-08-22T02:40:27.944Z,3.55
2022-08-22T02:43:19.002Z,3.50
2022-08-22T02:45:52.620Z,3.90
2022-08-22T02:48:54.737Z,3.78
2022-08-22T02:52:03.972Z,3.50
2022-08-22T02:54:55.667Z,3.97
2022-08-22T02:57:43.769Z,4.03
2022-08-22T03:00:33.316Z,3.60
2022-08-22T03:03:16.185Z,4.00
2022-08-22T03:06:01.996Z,4.35
2022-08-22T03:08:47.418Z,4.57
2022-08-22T03:11:30.885Z,4.00
2022-08-22T03:14:14.203Z,3.95
2022-08-22T03:16:54.225Z,3.97
2022-08-22T03:19:39.855Z,4.28
2022-08-22T03:22:17.526Z,3.78
2022-08-22T03:24:53.168Z,3.72
2022-08-22T03:27:34.922Z,3.90
2022-08-22T03:30:17.787Z,3.50
2022-08-22T03:32:50.129Z,3.95
2022-08-22T03:35:45.720Z,3.75
2022-08-22T03:38:34.134Z,4.10
2022-08-22T03:41:43.402Z,4.22
2022-08-22T03:44:39.271Z,3.85
2022-08-22T03:47:53.940Z,3.63
2022-08-22T03:51:00.668Z,4.20
2022-08-22T03:53:41.108Z,3.90
2022-08-22T03:56:27.270Z,3.95
2022-08-22T03:59:19.324Z,3.97
2022-08-22T04:02:01.820Z,3.95
2022-08-22T04:05:09.095Z,3.95
2022-08-22T04:08:11.250Z,4.05
2022-08-22T04:11:02.524Z,4.13
2022-08-22T04:13:59.476Z,3.90
2022-08-22T04:16:26.711Z,3.95
2022-08-22T04:20:09.722Z,4.15
2022-08-22T04:22:49.351Z,4.40
2022-08-22T04:25:33.446Z,4.53
2022-08-22T04:28:23.455Z,4.32
2022-08-22T04:31:02.455Z,4.38
2022-08-22T04:34:02.000Z,4.22
2022-08-22T04:36:59.889Z,4.38
2022-08-22T04:39:42.105Z,4.55
2022-08-22T04:42:35.391Z,4.60
2022-08-22T04:45:10.725Z,4.38
2022-08-22T04:47:54.215Z,4.43
2022-08-22T04:50:43.278Z,4.53
2022-08-22T04:53:49.868Z,4.20
2022-08-22T04:56:45.989Z,4.55
2022-08-22T04:59:18.196Z,5.55
2022-08-22T05:01:58.247Z,4.70
2022-08-22T05:04:38.782Z,4.80
2022-08-22T05:07:22.119Z,4.47
2022-08-22T05:10:09.373Z,4.60
2022-08-22T05:12:50.659Z,4.88
2022-08-22T05:15:23.996Z,4.80
2022-08-22T05:17:56.200Z,4.25
2022-08-22T05:20:26.560Z,4.10
2022-08-22T05:23:17.512Z,4.13
2022-08-22T05:25:48.401Z,3.92
2022-08-22T05:28:25.277Z,4.05
2022-08-22T05:30:53.790Z,4.35
2022-08-22T05:33:42.397Z,3.70
2022-08-22T05:36:20.367Z,4.15
2022-08-22T05:39:04.576Z,4.10
2022-08-22T05:41:36.987Z,3.58
2022-08-22T05:44:08.177Z,4.00
2022-08-22T05:46:50.456Z,3.90
2022-08-22T05:49:45.894Z,4.30
2022-08-22T05:52:43.518Z,4.07
2022-08-22T05:55:29.167Z,4.47
2022-08-22T05:58:43.296Z,3.75
2022-08-22T06:01:51.944Z,4.20
2022-08-22T06:04:47.566Z,3.80
2022-08-22T06:07:47.450Z,3.97
2022-08-22T06:10:40.792Z,3.75
2022-08-22T06:13:32.613Z,3.97
2022-08-22T06:16:23.680Z,4.00
2022-08-22T06:18:52.370Z,3.63
2022-08-22T06:21:33.702Z,4.15
2022-08-22T06:24:09.546Z,3.92
2022-08-22T06:26:41.029Z,3.92
2022-08-22T06:29:14.829Z,4.03
2022-08-22T06:31:49.741Z,4.03
2022-08-22T06:34:36.244Z,3.80
2022-08-22T06:37:09.658Z,3.67
2022-08-22T06:39:42.302Z,4.20
2022-08-22T06:42:17.086Z,3.90
2022-08-22T06:45:22.255Z,4.05
2022-08-22T06:48:15.513Z,3.78
2022-08-22T06:50:46.064Z,4.00
2022-08-22T06:53:28.857Z,4.07
2022-08-22T06:56:02.565Z,3.60
2022-08-22T06:58:39.489Z,3.75
2022-08-22T07:01:27.422Z,4.00
2022-08-22T07:04:07.688Z,3.58
2022-08-22T07:06:47.504Z,3.58
2022-08-22T07:09:41.054Z,3.80
2022-08-22T07:12:18.897Z,3.85
2022-08-22T07:14:53.647Z,3.70
2022-08-22T07:17:28.511Z,3.60
2022-08-22T07:20:25.487Z,3.95
2022-08-22T07:22:58.655Z,3.63
2022-08-22T07:25:26.867Z,3.63
2022-08-22T07:28:21.576Z,4.32
2022-08-22T07:31:38.514Z,3.55
2022-08-22T07:34:37.997Z,3.53
2022-08-22T07:37:44.049Z,3.75
2022-08-22T07:40:23.455Z,3.13
2022-08-22T07:43:07.948Z,3.75
2022-08-22T07:45:47.846Z,3.75
2022-08-22T07:49:08.572Z,3.13
2022-08-22T07:52:04.540Z,3.15
2022-08-22T07:54:51.297Z,2.65
2022-08-22T07:57:34.940Z,3.05
2022-08-22T08:00:15.264Z,2.45
2022-08-22T08:02:59.045Z,2.75
2022-08-22T08:05:32.330Z,2.88
2022-08-22T08:08:05.674Z,2.97
2022-08-22T08:10:37.422Z,2.92
2022-08-22T08:13:14.779Z,2.45
2022-08-22T08:15:45.846Z,2.65
2022-08-22T08:18:21.760Z,2.85
2022-08-22T08:21:03.466Z,2.70
2022-08-22T08:23:41.642Z,2.75
2022-08-22T08:26:39.939Z,2.42
2022-08-22T08:29:07.355Z,2.50
2022-08-22T08:31:45.061Z,2.60
2022-08-22T08:34:20.453Z,2.33
2022-08-22T08:37:04.044Z,2.25
2022-08-22T08:39:41.407Z,2.40
2022-08-22T08:42:20.865Z,2.50
2022-08-22T08:45:17.848Z,2.75
2022-08-22T08:48:27.063Z,2.85
2022-08-22T08:51:09.263Z,2.83
2022-08-22T08:53:52.838Z,2.78
2022-08-22T08:56:56.038Z,2.40
2022-08-22T08:59:30.408Z,2.53
2022-08-22T09:02:28.040Z,2.80
2022-08-22T09:05:47.563Z,2.90
2022-08-22T09:08:30.267Z,2.38
2022-08-22T09:11:51.333Z,2.75
2022-08-22T09:15:02.350Z,2.63
2022-08-22T09:18:03.613Z,2.95
2022-08-22T09:20:56.145Z,2.50
2022-08-22T09:24:15.060Z,2.40
2022-08-22T09:27:49.661Z,2.53
2022-08-22T09:30:27.565Z,2.63
2022-08-22T09:33:21.402Z,2.70
2022-08-22T09:36:06.901Z,2.85
2022-08-22T09:38:55.324Z,2.55
2022-08-22T09:41:56.141Z,2.40
2022-08-22T09:45:33.564Z,2.42
2022-08-22T09:48:29.507Z,2.38
2022-08-22T09:52:05.255Z,2.50
2022-08-22T09:55:07.917Z,2.70
2022-08-22T09:57:52.536Z,2.78
2022-08-22T10:00:54.524Z,2.08
2022-08-22T10:04:06.770Z,2.00
2022-08-22T10:07:05.630Z,2.53
2022-08-22T10:10:11.356Z,2.08
2022-08-22T10:13:15.418Z,2.80
2022-08-22T10:16:32.981Z,2.50
2022-08-22T10:19:23.327Z,1.95
2022-08-22T10:22:30.312Z,2.53
2022-08-22T10:25:36.387Z,2.97
2022-08-22T10:28:28.467Z,2.00
2022-08-22T10:31:15.009Z,1.73
2022-08-22T10:34:01.024Z,2.00
2022-08-22T10:36:44.235Z,2.60
2022-08-22T10:39:22.601Z,1.98
2022-08-22T10:42:11.299Z,2.30
2022-08-22T10:45:36.517Z,2.10
2022-08-22T10:48:22.731Z,1.90
2022-08-22T10:50:57.991Z,2.13
2022-08-22T10:53:59.379Z,1.90
2022-08-22T10:56:35.336Z,1.92
2022-08-22T10:59:23.321Z,2.05
2022-08-22T11:02:11.422Z,1.80
2022-08-22T11:05:06.851Z,1.77
2022-08-22T11:07:55.356Z,1.98
2022-08-22T11:11:12.907Z,2.58
2022-08-22T11:13:51.629Z,1.60
2022-08-22T11:17:23.554Z,1.90
2022-08-22T11:20:21.465Z,1.70
2022-08-22T11:22:56.738Z,1.83
2022-08-22T11:25:53.994Z,1.65
2022-08-22T11:28:44.347Z,1.50
2022-08-22T11:31:26.099Z,1.27
2022-08-22T11:34:22.801Z,1.80
2022-08-22T11:36:59.864Z,1.35
2022-08-22T11:40:01.881Z,1.73
2022-08-22T11:42:47.400Z,1.77
2022-08-22T11:48:13.945Z,1.80
2022-08-22T11:51:17.077Z,1.70
2022-08-22T11:54:09.333Z,1.50
2022-08-22T11:56:50.339Z,1.90
2022-08-22T11:59:52.676Z,1.50
2022-08-22T12:02:39.958Z,2.05
2022-08-22T12:05:36.268Z,1.52
2022-08-22T12:10:37.690Z,1.50
2022-08-22T12:13:49.207Z,1.47
2022-08-22T12:16:25.921Z,1.55
2022-08-22T12:20:15.102Z,1.65
2022-08-22T12:23:48.610Z,1.73
2022-08-22T12:26:48.178Z,1.73
2022-08-22T12:29:27.516Z,1.50
2022-08-22T12:32:33.356Z,2.20
2022-08-22T12:35:30.109Z,1.50
2022-08-22T12:38:28.204Z,1.73
2022-08-22T12:41:28.261Z,1.70
2022-08-22T12:44:20.529Z,1.40
2022-08-22T12:47:14.791Z,1.63
2022-08-22T12:50:31.472Z,1.70
2022-08-22T12:53:20.083Z,1.67
2022-08-22T12:56:24.640Z,1.70
2022-08-22T12:59:30.368Z,2.20
2022-08-22T13:02:12.699Z,1.77
2022-08-22T13:04:55.475Z,1.80
2022-08-22T13:07:28.772Z,2.00
2022-08-22T13:10:46.144Z,2.28
2022-08-22T13:13:56.042Z,1.77
2022-08-22T13:16:34.028Z,1.95
2022-08-22T13:19:22.200Z,1.60
2022-08-22T13:22:09.738Z,1.95
2022-08-22T13:25:05.319Z,1.70
2022-08-22T13:27:51.058Z,2.10
2022-08-22T13:30:34.453Z,1.83
2022-08-22T13:33:28.847Z,2.08
2022-08-22T13:36:15.069Z,1.75
2022-08-22T13:38:57.821Z,1.80
2022-08-22T13:41:40.253Z,1.77
2022-08-22T13:44:28.287Z,1.95
2022-08-22T13:47:14.237Z,2.15
2022-08-22T13:49:49.744Z,1.50
2022-08-22T13:52:36.005Z,1.95
2022-08-22T13:55:18.339Z,1.90
2022-08-22T13:57:59.477Z,1.90
2022-08-22T14:00:35.639Z,1.80
2022-08-22T14:03:21.607Z,1.80
2022-08-22T14:05:55.519Z,1.80
2022-08-22T14:08:40.484Z,2.13
2022-08-22T14:12:00.203Z,2.15
2022-08-22T14:14:33.590Z,2.03
2022-08-22T14:17:01.986Z,2.08
2022-08-22T14:19:52.907Z,2.22
2022-08-22T14:22:31.810Z,1.80
2022-08-22T14:25:09.116Z,2.25
2022-08-22T14:27:59.268Z,1.70
2022-08-22T14:30:59.390Z,1.83
2022-08-22T14:33:40.952Z,2.00
2022-08-22T14:36:27.461Z,2.00
2022-08-22T14:39:11.763Z,1.70
2022-08-22T14:41:59.445Z,1.75
2022-08-22T14:44:43.156Z,1.58
2022-08-22T14:47:55.418Z,1.95
2022-08-22T14:50:53.417Z,1.75
2022-08-22T14:53:25.725Z,1.85
2022-08-22T14:56:03.995Z,1.90
2022-08-22T14:58:38.292Z,1.73
2022-08-22T15:01:16.023Z,2.15
2022-08-22T15:03:52.311Z,2.10
2022-08-22T15:06:48.183Z,1.73
2022-08-22T15:09:42.549Z,1.63
2022-08-22T15:12:40.848Z,1.88
2022-08-22T15:15:52.901Z,2.03
2022-08-22T15:18:28.078Z,1.95
2022-08-22T15:21:12.376Z,2.03
2022-08-22T15:23:45.260Z,2.30
2022-08-22T15:26:25.589Z,2.00
2022-08-22T15:29:05.040Z,2.13
2022-08-22T15:31:34.880Z,1.90
2022-08-22T15:34:22.363Z,1.77
2022-08-22T15:37:09.921Z,2.25
2022-08-22T15:40:11.571Z,1.92
2022-08-22T15:42:50.511Z,2.17
2022-08-22T15:45:36.286Z,2.03
2022-08-22T15:48:26.803Z,2.20
2022-08-22T15:51:04.854Z,1.90
2022-08-22T15:54:25.367Z,2.15
2022-08-22T15:56:52.818Z,2.28
2022-08-22T15:59:47.731Z,2.10
2022-08-22T16:02:35.812Z,2.03
2022-08-22T16:05:12.123Z,2.08
2022-08-22T16:07:47.931Z,1.92
2022-08-22T16:10:23.764Z,2.00
2022-08-22T16:13:26.744Z,2.03
2022-08-22T16:16:10.639Z,1.70
2022-08-22T16:18:39.038Z,2.30
2022-08-22T16:21:13.220Z,2.10
2022-08-22T16:23:56.634Z,1.75
2022-08-22T16:26:29.492Z,2.67
2022-08-22T16:28:59.538Z,2.10
2022-08-22T16:31:44.207Z,1.95
2022-08-22T16:34:17.025Z,1.75
2022-08-22T16:36:46.174Z,1.40
2022-08-22T16:39:47.914Z,1.70
2022-08-22T16:42:24.148Z,1.88
2022-08-22T16:45:05.348Z,1.92
2022-08-22T16:47:32.963Z,1.90
2022-08-22T16:50:09.336Z,1.92
2022-08-22T16:52:40.866Z,1.92
2022-08-22T16:55:30.774Z,2.00
2022-08-22T16:58:17.169Z,1.98
2022-08-22T17:00:59.311Z,2.00
2022-08-22T17:04:14.798Z,2.35
2022-08-22T17:07:06.972Z,1.73
2022-08-22T17:10:37.152Z,2.00
2022-08-22T17:13:27.417Z,2.00
2022-08-22T17:16:13.454Z,3.55
2022-08-22T17:18:49.777Z,2.10
2022-08-22T17:21:28.648Z,1.92
2022-08-22T17:24:31.618Z,2.22
2022-08-22T17:27:25.366Z,1.75
2022-08-22T17:29:59.452Z,2.13
2022-08-22T17:32:46.375Z,2.17
2022-08-22T17:35:54.900Z,1.67
2022-08-22T17:38:53.857Z,2.13
2022-08-22T17:41:45.936Z,1.77
2022-08-22T17:44:18.832Z,2.20
2022-08-22T17:46:57.877Z,1.80
2022-08-22T17:49:45.153Z,2.05
2022-08-22T17:52:42.716Z,2.30
2022-08-22T17:55:22.449Z,2.30
2022-08-22T17:58:03.431Z,2.00
2022-08-22T18:01:19.529Z,2.00
2022-08-22T18:03:58.633Z,1.98
2022-08-22T18:06:34.584Z,2.03
2022-08-22T18:09:14.000Z,2.30
2022-08-22T18:12:15.693Z,2.17
2022-08-22T18:14:56.601Z,2.33
2022-08-22T18:17:41.911Z,2.30
2022-08-22T18:20:17.201Z,2.13
2022-08-22T18:22:56.965Z,2.65
2022-08-22T18:25:41.774Z,1.90
2022-08-22T18:28:30.899Z,2.42
2022-08-22T18:31:04.729Z,2.00
2022-08-22T18:33:41.640Z,2.13
2022-08-22T18:36:24.938Z,2.40
2022-08-22T18:39:03.511Z,2.00
2022-08-22T18:41:34.523Z,2.45
2022-08-22T18:44:34.640Z,2.60
2022-08-22T18:47:17.230Z,2.53
2022-08-22T18:49:55.280Z,2.50
2022-08-22T18:52:25.911Z,1.98
2022-08-22T18:55:24.346Z,2.28
2022-08-22T18:58:12.761Z,2.30
2022-08-22T19:01:04.886Z,2.63
2022-08-22T19:04:15.608Z,3.05
2022-08-22T19:07:29.828Z,2.65
2022-08-22T19:10:48.585Z,2.65
2022-08-22T19:13:44.063Z,2.40
2022-08-22T19:16:28.666Z,2.83
2022-08-22T19:19:53.327Z,2.80
2022-08-22T19:22:20.169Z,2.65
2022-08-22T19:25:08.958Z,2.85
2022-08-22T19:28:10.182Z,2.97
2022-08-22T19:30:51.160Z,2.90
2022-08-22T19:33:34.445Z,2.90
2022-08-22T19:36:12.743Z,2.70
2022-08-22T19:39:04.932Z,3.58
2022-08-22T19:41:56.848Z,3.63
2022-08-22T19:44:23.900Z,2.75
2022-08-22T19:47:18.315Z,3.00
2022-08-22T19:49:50.273Z,2.90
2022-08-22T19:52:55.107Z,3.05
2022-08-22T19:55:58.575Z,3.67
2022-08-22T19:58:54.248Z,3.35
2022-08-22T20:01:56.135Z,2.58
2022-08-22T20:05:06.731Z,3.00
2022-08-22T20:07:59.653Z,3.15
2022-08-22T20:10:48.512Z,3.10
2022-08-22T20:13:36.360Z,3.22
2022-08-22T20:16:21.999Z,2.67
2022-08-22T20:19:14.386Z,2.88
2022-08-22T20:22:03.797Z,2.58
2022-08-22T20:24:43.311Z,2.63
2022-08-22T20:27:28.795Z,2.78
2022-08-22T20:30:19.560Z,3.37
2022-08-22T20:33:08.181Z,2.70
2022-08-22T20:35:50.618Z,3.03
2022-08-22T20:38:23.654Z,3.15
2022-08-22T20:41:11.359Z,2.67
2022-08-22T20:43:56.513Z,2.88
2022-08-22T20:46:46.112Z,2.72
2022-08-22T20:49:48.638Z,2.80
2022-08-22T20:52:21.625Z,2.75
2022-08-22T20:55:25.893Z,3.00
2022-08-22T20:58:04.168Z,2.88
2022-08-22T21:00:42.636Z,3.65
2022-08-22T21:03:42.741Z,2.70
2022-08-22T21:06:32.401Z,4.03
2022-08-22T21:09:36.851Z,3.10
2022-08-22T21:12:09.071Z,3.20
2022-08-22T21:14:44.415Z,3.03
2022-08-22T21:17:39.253Z,3.33
2022-08-22T21:20:22.683Z,3.13
2022-08-22T21:22:50.703Z,2.85
2022-08-22T21:25:18.081Z,2.95
2022-08-22T21:27:49.343Z,2.63
2022-08-22T21:30:28.133Z,3.40
2022-08-22T21:32:56.604Z,2.97
2022-08-22T21:35:33.415Z,3.10
2022-08-22T21:38:01.885Z,2.90
2022-08-22T21:40:37.486Z,2.97
2022-08-22T21:43:12.002Z,3.40
2022-08-22T21:45:38.975Z,3.13
2022-08-22T21:48:40.966Z,2.78
2022-08-22T21:51:29.909Z,2.83
2022-08-22T21:54:25.389Z,3.08
2022-08-22T21:56:56.739Z,2.45
2022-08-22T21:59:51.683Z,2.85
2022-08-22T22:02:37.745Z,3.25
2022-08-22T22:05:17.131Z,2.97
2022-08-22T22:07:47.247Z,3.20
2022-08-22T22:10:18.832Z,3.10
2022-08-22T22:12:48.917Z,3.22
2022-08-22T22:15:23.013Z,3.22
2022-08-22T22:17:50.858Z,3.72
2022-08-22T22:20:20.631Z,3.00
2022-08-22T22:22:48.225Z,3.30
2022-08-22T22:25:40.915Z,3.42
2022-08-22T22:28:11.665Z,3.15
2022-08-22T22:30:39.319Z,3.10
2022-08-22T22:33:06.438Z,3.42
2022-08-22T22:35:34.034Z,3.38
2022-08-22T22:38:01.249Z,3.30
2022-08-22T22:40:28.477Z,3.80
2022-08-22T22:42:55.586Z,3.50
2022-08-22T22:45:22.501Z,3.03
2022-08-22T22:47:49.625Z,3.58
2022-08-22T22:50:16.874Z,3.53
2022-08-22T22:52:43.874Z,3.15
2022-08-22T22:55:11.337Z,3.00
2022-08-22T22:57:59.148Z,3.30
2022-08-22T23:00:30.816Z,3.33
2022-08-22T23:03:03.332Z,3.03
2022-08-22T23:05:31.637Z,3.25
2022-08-22T23:07:59.202Z,3.75
2022-08-22T23:10:28.775Z,3.22
2022-08-22T23:12:56.196Z,3.50
2022-08-22T23:15:23.529Z,3.45
2022-08-22T23:17:50.652Z,3.28
2022-08-22T23:20:17.953Z,3.50
2022-08-22T23:22:46.069Z,3.80
2022-08-22T23:25:13.767Z,4.28
2022-08-22T23:27:41.271Z,3.80
2022-08-22T23:30:10.499Z,3.63
2022-08-22T23:32:37.690Z,4.43
2022-08-22T23:35:06.121Z,4.30
2022-08-22T23:37:33.785Z,4.03
2022-08-22T23:40:00.972Z,4.70
2022-08-22T23:42:29.415Z,4.05
2022-08-22T23:44:56.555Z,3.95
2022-08-22T23:47:23.633Z,4.00
2022-08-22T23:49:50.791Z,4.00
2022-08-22T23:52:36.073Z,4.00
2022-08-22T23:55:04.001Z,4.07
2022-08-22T23:57:30.952Z,4.03
2022-08-22T23:59:58.710Z,5.07
